Language selection

My Weather Profile Weather Topics  | 

Northumberland Strait: Past 24 Hour Conditions

 

East Chedabucto Bay - 44488

12:00 PM ADT 03 August 2021Buoy position: 45.45N 60.95W
Disclaimer

This table is a summary of hourly weather conditions for the past 24 hours.
Please note that these observations might not always be representative of weather conditions over their associated marine area.

Date / Time
(ADT)
Wind(knots) Wave height(m) Wave period(s) Pressure(kPa) Air tempC) Water tempC)
03 August 2021
12:00 SW 8 gust 10 0.7 8.3 101.8 17 14
11:00 W 5 gust 7 0.7 8.2 101.8 16 14
10:00 WSW 9 gust 11 0.7 6.7 101.7 15 14
9:00 WSW 12 gust 15 0.6 5.6 101.7 15 13
8:00 WSW 13 gust 16 0.6 4.7 101.6 15 13
7:00 WSW 13 gust 16 0.6 4.0 101.5 14 13
6:00 WSW 10 gust 12 0.6 4.4 101.5 14 13
5:00 W 12 gust 15 0.6 4.5 101.4 14 13
4:00 W 10 gust 12 0.6 5.0 101.3 14 13
3:00 WSW 12 gust 15 0.7 4.7 101.2 15 14
2:00 W 14 gust 17 0.6 4.9 101.1 15 14
1:00 W 14 gust 17 0.7 4.9 101.0 15 14
0:00 WNW 16 gust 20 0.7 4.8 100.9 16 15
02 August 2021
23:00 WNW 22 gust 26 0.7 4.3 100.8 16 15
22:00 WNW 16 gust 19 0.6 5.2 100.7 15 15
21:00 N 18 gust 22 0.8 4.6 100.4 15 15
20:00 WNW 14 gust 21 0.8 4.9 100.4 16 15
19:00 SSE 14 gust 18 0.8 4.6 100.3 17 15
18:00 ESE 17 gust 21 0.8 4.2 100.4 17 15
17:00 ESE 15 gust 18 0.8 4.0 100.6 17 15
16:00 ENE 12 gust 14 0.7 4.8 100.7 16 16
15:00 ENE 11 gust 13 0.6 5.7 100.9 16 16
14:00 E 10 gust 12 0.6 7.2 101.0 16 16
13:00 ENE 8 gust 9 0.5 7.8 101.1 16 16
12:00 ENE 6 gust 6 0.6 7.9 101.3 15 16

Zoom-in to make a selection

Map of Atlantic - Newfoundland marine weather areas Banquereau - 44139 East Chedabucto Bay - 44488 West Chedabucto Bay - 44489 Blanc-Sablon Airport Cap Whittle Chevery Natashquan Airport Heath Point Îles de la Madeleine Airport Miscou Island Eskasoni (First Nations) Grand Étang Ingonish Beach North Mountain St.Paul Island J.A. Douglas McCurdy Sydney Airport Charlottetown Airport East Point North Cape Argentia Bonavista Burgeo Cape Race Corner Brook Daniel's Harbour Englee Ferolle Point La Scie Port aux Basques Rocky Harbour Sagona Island St. Anthony Airport St. John's Int'l Airport St. Lawrence Stephenville Airport Twillingate Winterland Branch Hill Wreckhouse Grates Cove Pool's Island Marticot Island Long Pond Cartwright Airport Mary's Harbour
Legend:
buoy Buoy
land station Land Station

Atlantic - Newfoundland Area

Another Region

What we are doing

Date modified: